Time;durP1;ratioP1;P1;durP2;ratioP2;P2;SDS_P1;SDS_P2;PMS_P1;PMS_P2;Temp;Humidity;BMP_temperature;BMP_pressure;BME280_temperature;BME280_humidity;BME280_pressure;Samples;Min_cycle;Max_cycle;Signal;HPM_P1;HPM_P2
2022/10/25 00:00:53;;;;;;;11.13;10.20;;;;;;;11.83;100.00;-5020.16;5094701;28;20547;-60
2022/10/25 00:03:19;;;;;;;11.43;10.47;;;;;;;11.84;100.00;-4700.47;5094462;28;20628;-61
2022/10/25 00:05:46;;;;;;;12.40;11.00;;;;;;;11.81;100.00;-6937.53;5094630;28;20557;-61
2022/10/25 00:08:13;;;;;;;12.63;11.37;;;;;;;11.97;100.00;-9813.22;5094457;28;20631;-62
2022/10/25 00:10:40;;;;;;;12.20;10.97;;;;;;;12.04;100.00;-9813.97;5094190;28;20214;-61
2022/10/25 00:13:07;;;;;;;14.80;11.00;;;;;;;12.05;100.00;-8856.03;5094568;28;20188;-61
2022/10/25 00:15:34;;;;;;;10.20;9.50;;;;;;;11.86;100.00;-6618.31;5094423;28;20188;-62
2022/10/25 00:18:02;;;;;;;14.63;10.20;;;;;;;11.93;100.00;-5340.13;5094043;28;20184;-61
2022/10/25 00:20:29;;;;;;;10.93;10.33;;;;;;;11.82;100.00;-5978.97;5094115;28;20191;-61
2022/10/25 00:22:58;;;;;;;11.73;10.40;;;;;;;11.70;100.00;-9172.06;5094306;28;20206;-61
2022/10/25 00:25:25;;;;;;;12.80;11.67;;;;;;;11.90;100.00;-9812.59;5094329;28;20188;-61
2022/10/25 00:27:52;;;;;;;11.90;10.60;;;;;;;11.76;100.00;-8853.44;5093832;28;20234;-61
2022/10/25 00:30:19;;;;;;;14.70;10.63;;;;;;;11.75;100.00;-7895.41;5093584;28;20236;-62
2022/10/25 00:32:46;;;;;;;11.37;10.37;;;;;;;11.71;100.00;-8533.72;5094059;28;20187;-61
2022/10/25 00:35:14;;;;;;;11.73;10.43;;;;;;;11.85;100.00;-8534.88;5094033;28;20192;-62
2022/10/25 00:37:41;;;;;;;12.37;10.57;;;;;;;11.82;100.00;-7257.09;5094008;28;20184;-62
2022/10/25 00:40:09;;;;;;;16.87;10.97;;;;;;;11.88;100.00;-5979.25;5093880;28;20202;-61
2022/10/25 00:42:36;;;;;;;10.47;9.83;;;;;;;11.82;100.00;-5020.13;5093583;28;20180;-61
2022/10/25 00:45:13;;;;;;;10.60;9.73;;;;;;;11.83;100.00;-4700.47;5092456;28;20198;-62
2022/10/25 00:47:48;;;;;;;11.63;9.97;;;;;;;11.92;100.00;-5340.09;5093883;28;20630;-61
2022/10/25 00:50:30;;;;;;;11.10;9.90;;;;;;;11.88;100.00;-5979.25;5093666;28;20210;-62
2022/10/25 00:53:05;;;;;;;11.53;10.57;;;;;;;11.69;100.00;-7894.91;5093344;28;20192;-63
2022/10/25 00:55:33;;;;;;;11.93;10.83;;;;;;;11.67;100.00;-8852.56;5093835;28;20187;-61
2022/10/25 00:58:04;;;;;;;11.63;10.50;;;;;;;11.40;100.00;-9169.25;5093638;28;20602;-62
2022/10/25 01:00:31;;;;;;;11.30;10.27;;;;;;;11.18;100.00;-10123.75;5093505;28;20627;-60
2022/10/25 01:02:58;;;;;;;12.43;11.37;;;;;;;11.25;100.00;-12037.31;5093455;28;20684;-62
2022/10/25 01:05:26;;;;;;;13.57;10.57;;;;;;;11.07;100.00;-12671.88;5093253;28;20191;-62
2022/10/25 01:07:53;;;;;;;10.97;10.23;;;;;;;11.07;100.00;-13945.78;5093063;28;20195;-61
2022/10/25 01:10:20;;;;;;;12.43;10.63;;;;;;;11.14;100.00;-13628.56;5093190;28;20586;-61
2022/10/25 01:12:47;;;;;;;10.87;10.00;;;;;;;11.23;100.00;-13311.53;5093312;28;20550;-60
2022/10/25 01:15:14;;;;;;;12.10;10.97;;;;;;;11.05;100.00;-14263.75;5092937;28;20188;-61
2022/10/25 01:17:52;;;;;;;13.13;11.87;;;;;;;11.33;100.00;-14587.28;5092868;28;20187;-61
2022/10/25 01:20:47;;;;;;;15.33;11.07;;;;;;;11.59;100.00;-15547.69;5093137;28;20214;-61
2022/10/25 01:23:33;;;;;;;12.37;11.17;;;;;;;11.64;100.00;-14274.34;5093027;28;20195;-61
2022/10/25 01:26:39;;;;;;;16.30;12.37;;;;;;;11.68;100.00;-13956.34;5093119;28;20558;-61
2022/10/25 01:29:29;;;;;;;12.63;11.67;;;;;;;11.95;100.00;-17466.56;5092517;28;20176;-61
2022/10/25 01:32:01;;;;;;;18.13;12.87;;;;;;;12.10;100.00;-18109.03;5092883;28;20643;-61
2022/10/25 01:34:33;;;;;;;13.97;12.50;;;;;;;12.21;100.00;-18111.56;5075129;28;20187;-61
2022/10/25 01:37:05;;;;;;;13.40;12.17;;;;;;;11.82;100.00;-13639.97;5092483;28;20245;-61
2022/10/25 01:39:36;;;;;;;11.47;10.63;;;;;;;11.84;100.00;-8854.13;5092865;28;20652;-62
2022/10/25 01:42:07;;;;;;;11.80;10.57;;;;;;;11.54;100.00;-8851.38;5092746;28;20252;-61
2022/10/25 01:44:44;;;;;;;12.43;11.27;;;;;;;11.41;100.00;-8212.00;5092722;28;20191;-61
2022/10/25 01:47:17;;;;;;;12.70;11.40;;;;;;;11.71;100.00;-7575.72;5092529;28;20238;-62
2022/10/25 01:49:48;;;;;;;14.47;10.67;;;;;;;11.66;100.00;-6936.63;5092321;28;20184;-61
2022/10/25 01:52:19;;;;;;;12.33;11.13;;;;;;;11.48;100.00;-6616.22;5092566;28;20574;-62
2022/10/25 01:54:46;;;;;;;12.67;11.40;;;;;;;11.42;100.00;-7254.50;5091868;28;20188;-62
2022/10/25 01:57:36;;;;;;;13.87;11.23;;;;;;;11.35;100.00;-7573.25;5074309;28;20188;-62
2022/10/25 02:00:10;;;;;;;12.70;11.30;;;;;;;11.41;100.00;-9169.31;5092134;28;20241;-61
2022/10/25 02:03:01;;;;;;;11.73;10.83;;;;;;;11.14;100.00;-12672.88;5092069;28;20193;-61
2022/10/25 02:05:35;;;;;;;12.53;11.43;;;;;;;11.12;100.00;-13946.66;5092033;28;20188;-62
2022/10/25 02:08:06;;;;;;;14.60;11.40;;;;;;;11.11;100.00;-15856.56;5092050;28;20191;-60
2022/10/25 02:10:38;;;;;;;12.20;11.13;;;;;;;11.06;100.00;-17446.25;5092073;28;20255;-61
2022/10/25 02:13:15;;;;;;;17.83;11.57;;;;;;;11.27;100.00;-17132.91;5092176;28;20555;-61
2022/10/25 02:15:52;;;;;;;13.13;12.07;;;;;;;11.15;100.00;-16811.94;5091977;28;20191;-61
2022/10/25 02:18:25;;;;;;;13.37;11.63;;;;;;;11.02;100.00;-15218.13;5092287;28;20194;-61
2022/10/25 02:20:55;;;;;;;20.57;11.80;;;;;;;11.17;100.00;-14902.69;5091776;28;20271;-62
2022/10/25 02:23:23;;;;;;;14.90;11.90;;;;;;;11.08;100.00;-14901.09;5091890;28;20180;-61
2022/10/25 02:25:51;;;;;;;18.77;12.03;;;;;;;11.20;100.00;-14584.97;5092296;28;20559;-61
2022/10/25 02:28:22;;;;;;;16.23;12.37;;;;;;;11.24;100.00;-14904.03;5092119;28;20639;-62
2022/10/25 02:30:51;;;;;;;12.73;11.67;;;;;;;11.24;100.00;-15222.44;5091555;28;20232;-63
2022/10/25 02:33:18;;;;;;;13.60;11.83;;;;;;;11.20;100.00;-13629.47;5091659;28;20184;-61
2022/10/25 02:36:05;;;;;;;13.00;11.70;;;;;;;11.10;100.00;-12035.19;5092106;28;20188;-61
2022/10/25 02:38:33;;;;;;;14.73;11.77;;;;;;;11.31;100.00;-12038.19;5091838;28;20188;-62
2022/10/25 02:41:02;;;;;;;12.33;11.43;;;;;;;11.28;100.00;-12675.13;5091632;28;20187;-61
2022/10/25 02:43:29;;;;;;;13.17;11.77;;;;;;;11.33;100.00;-12994.53;5092065;28;20639;-61
2022/10/25 02:45:56;;;;;;;12.93;11.80;;;;;;;11.44;100.00;-13633.63;5091870;28;20550;-61
2022/10/25 02:48:23;;;;;;;14.90;11.83;;;;;;;11.34;100.00;-13950.50;5091989;28;20279;-61
2022/10/25 02:50:51;;;;;;;25.87;11.83;;;;;;;11.33;100.00;-13950.25;5091753;28;20210;-60
2022/10/25 02:53:18;;;;;;;12.47;11.60;;;;;;;11.40;100.00;-14270.03;5091574;28;20184;-62
2022/10/25 02:55:45;;;;;;;14.73;11.70;;;;;;;11.34;100.00;-13631.94;5091833;28;20635;-62
2022/10/25 02:58:12;;;;;;;17.00;12.43;;;;;;;11.41;100.00;-16181.09;5091531;28;20188;-61
2022/10/25 03:00:38;;;;;;;21.07;12.10;;;;;;;11.42;100.00;-17136.19;5091895;28;20184;-61
2022/10/25 03:03:05;;;;;;;15.60;12.97;;;;;;;11.54;100.00;-17775.41;5091776;28;20662;-62
2022/10/25 03:05:32;;;;;;;17.87;12.10;;;;;;;11.52;100.00;-17774.94;5091817;28;20554;-62
2022/10/25 03:08:01;;;;;;;12.83;11.57;;;;;;;11.50;100.00;-16501.19;5094143;28;20627;-61
2022/10/25 03:10:27;;;;;;;12.67;11.40;;;;;;;11.50;100.00;-15227.41;5095570;28;20711;-61
2022/10/25 03:12:54;;;;;;;14.50;12.07;;;;;;;11.46;100.00;-13315.22;5077526;28;20536;-62
2022/10/25 03:15:21;;;;;;;21.43;12.73;;;;;;;11.55;100.00;-12997.88;5095535;28;20223;-61
2022/10/25 03:17:48;;;;;;;16.13;11.40;;;;;;;11.52;100.00;-11084.41;5095478;28;20192;-61
2022/10/25 03:20:15;;;;;;;13.23;12.00;;;;;;;11.39;100.00;-9807.13;5095216;28;20191;-61
2022/10/25 03:22:42;;;;;;;14.93;11.50;;;;;;;11.27;100.00;-10124.81;5095104;28;20180;-61
2022/10/25 03:25:10;;;;;;;14.93;12.20;;;;;;;11.21;100.00;-9167.41;5095166;28;20184;-61
2022/10/25 03:27:37;;;;;;;13.83;12.23;;;;;;;11.26;100.00;-9167.84;5095053;28;20184;-61
2022/10/25 03:30:05;;;;;;;17.93;12.40;;;;;;;11.11;100.00;-9485.34;5094758;28;20242;-63
2022/10/25 03:32:32;;;;;;;13.77;12.47;;;;;;;10.98;100.00;-11396.28;5094855;28;20211;-61
2022/10/25 03:34:59;;;;;;;17.17;12.70;;;;;;;10.97;100.00;-13307.34;5094922;28;20184;-61
2022/10/25 03:37:26;;;;;;;22.20;13.43;;;;;;;11.00;100.00;-13626.19;5094897;28;20227;-61
2022/10/25 03:39:53;;;;;;;16.07;12.77;;;;;;;10.94;100.00;-13625.16;5094885;28;20639;-61
2022/10/25 03:42:21;;;;;;;14.77;13.27;;;;;;;10.98;100.00;-12988.97;5094929;28;20176;-61
2022/10/25 03:44:48;;;;;;;13.73;12.27;;;;;;;10.88;100.00;-12987.38;5094992;28;20651;-61
2022/10/25 03:47:16;;;;;;;14.77;13.23;;;;;;;10.94;100.00;-12988.44;5094930;28;20223;-60
2022/10/25 03:49:43;;;;;;;14.33;12.87;;;;;;;11.08;100.00;-13309.06;5095050;28;20191;-61
2022/10/25 03:52:10;;;;;;;20.27;13.33;;;;;;;11.14;100.00;-12991.53;5094420;28;20256;-61
2022/10/25 03:54:37;;;;;;;14.87;13.17;;;;;;;11.13;100.00;-12991.38;5094538;28;20188;-62
2022/10/25 03:57:04;;;;;;;21.93;14.90;;;;;;;11.13;100.00;-12991.38;5094513;28;20184;-61
2022/10/25 03:59:32;;;;;;;20.03;14.47;;;;;;;11.12;100.00;-13628.22;5094846;28;20566;-61
2022/10/25 04:02:00;;;;;;;17.70;14.97;;;;;;;11.04;100.00;-12989.94;5094331;28;20287;-61
2022/10/25 04:04:27;;;;;;;15.07;13.63;;;;;;;11.13;100.00;-12991.38;5094434;28;20184;-61
2022/10/25 04:06:54;;;;;;;24.80;14.97;;;;;;;11.17;100.00;-13629.06;5094273;28;20200;-62
2022/10/25 04:09:21;;;;;;;17.57;14.20;;;;;;;11.23;100.00;-14585.44;5094137;28;20188;-63
2022/10/25 04:11:48;;;;;;;25.20;14.37;;;;;;;11.04;100.00;-15218.63;5094092;28;20208;-61
2022/10/25 04:14:15;;;;;;;27.40;15.47;;;;;;;11.29;100.00;-16178.47;5094103;28;20274;-62
2022/10/25 04:16:43;;;;;;;31.40;15.17;;;;;;;11.23;100.00;-16813.69;5094033;28;20188;-61
2022/10/25 04:19:10;;;;;;;24.27;15.00;;;;;;;11.14;100.00;-16175.41;5094080;28;20710;-61
2022/10/25 04:21:37;;;;;;;25.20;15.30;;;;;;;11.35;100.00;-15861.47;5094316;28;20184;-61
2022/10/25 04:24:04;;;;;;;33.30;14.60;;;;;;;11.42;100.00;-15862.81;5094029;28;20185;-62
2022/10/25 04:26:33;;;;;;;29.60;14.90;;;;;;;11.42;100.00;-15544.50;5093999;28;20188;-62
2022/10/25 04:29:00;;;;;;;31.47;14.87;;;;;;;11.40;100.00;-14270.13;5093754;28;20194;-62
2022/10/25 04:31:27;;;;;;;24.03;14.50;;;;;;;11.31;100.00;-14905.47;5093773;28;20208;-61
2022/10/25 04:33:56;;;;;;;24.30;15.43;;;;;;;11.23;100.00;-14903.94;5093710;28;20274;-62
2022/10/25 04:36:23;;;;;;;35.70;16.73;;;;;;;11.46;100.00;-15545.19;5094026;28;20554;-62
2022/10/25 04:38:52;;;;;;;27.37;16.50;;;;;;;11.37;100.00;-17453.41;5093604;28;20190;-62
2022/10/25 04:41:19;;;;;;;25.43;15.17;;;;;;;11.51;100.00;-18092.94;5093514;28;20187;-61
2022/10/25 04:43:47;;;;;;;34.57;16.03;;;;;;;11.53;100.00;-18095.28;5093781;28;20231;-62
2022/10/25 04:46:15;;;;;;;34.13;16.03;;;;;;;11.67;100.00;-18096.81;5094105;28;20531;-62
2022/10/25 04:48:42;;;;;;;31.07;15.93;;;;;;;11.60;100.00;-17458.59;5093688;28;20184;-61
2022/10/25 04:51:12;;;;;;;34.20;15.53;;;;;;;11.84;100.00;-15871.44;5093767;28;20275;-61
2022/10/25 04:53:39;;;;;;;29.73;16.77;;;;;;;11.72;100.00;-13638.28;5093817;28;20587;-62
2022/10/25 04:56:09;;;;;;;41.53;17.60;;;;;;;11.88;100.00;-12365.22;5093618;28;20187;-61
2022/10/25 04:58:36;;;;;;;31.73;15.20;;;;;;;11.81;100.00;-11726.22;5093299;28;20219;-62
2022/10/25 05:01:06;;;;;;;30.13;16.27;;;;;;;12.06;100.00;-10772.09;5093624;28;20275;-63
2022/10/25 05:03:33;;;;;;;41.93;17.70;;;;;;;12.18;100.00;-10134.84;5093359;28;20643;-62
2022/10/25 05:06:08;;;;;;;26.63;15.80;;;;;;;12.26;100.00;-7899.22;5093469;28;20657;-62
2022/10/25 05:08:38;;;;;;;32.17;16.13;;;;;;;12.28;100.00;-6620.59;5093029;28;20184;-61
2022/10/25 05:11:06;;;;;;;30.17;17.07;;;;;;;12.39;100.00;-6301.34;5093249;28;20630;-63
2022/10/25 05:13:34;;;;;;;40.47;16.50;;;;;;;12.54;100.00;-5022.19;5093337;28;20555;-62
2022/10/25 05:16:01;;;;;;;56.53;28.60;;;;;;;12.67;100.00;-3741.84;5093278;28;20207;-62
2022/10/25 05:18:28;;;;;;;51.27;29.60;;;;;;;13.08;100.00;-2780.69;5093143;28;20553;-62
2022/10/25 05:20:56;;;;;;;45.60;24.87;;;;;;;13.43;100.00;-1176.41;5092831;28;20598;-62
2022/10/25 05:23:24;;;;;;;44.53;22.43;;;;;;;13.88;100.00;4288.50;5092807;28;20181;-61
2022/10/25 05:26:02;;;;;;;53.53;22.07;;;;;;;14.16;100.00;11056.59;5093580;28;20183;-62
2022/10/25 05:28:28;;;;;;;70.60;23.07;;;;;;;14.72;100.00;30815.19;5093038;28;20206;-63
2022/10/25 05:30:55;;;;;;;68.77;22.77;;;;;;;15.05;100.00;48421.41;5092863;28;20227;-61
2022/10/25 05:33:22;;;;;;;76.90;20.63;;;;;;;15.35;100.00;64820.69;5094327;28;20206;-58
2022/10/25 05:35:49;;;;;;;74.70;21.03;;;;;;;15.68;100.00;82970.25;5092806;28;20663;-59
2022/10/25 05:38:16;;;;;;;63.93;21.10;;;;;;;16.04;100.00;99580.81;5092697;28;20660;-57
2022/10/25 05:40:43;;;;;;;52.13;18.93;;;;;;;16.24;100.00;130971.72;5092683;28;20194;-58
2022/10/25 05:43:11;;;;;;;60.97;18.30;;;;;;;16.31;100.00;149054.75;5092317;28;20212;-58
2022/10/25 05:45:38;;;;;;;37.00;15.40;;;;;;;16.59;100.00;150207.56;5092597;28;20180;-59
2022/10/25 05:48:05;;;;;;;62.57;16.67;;;;;;;16.58;100.00;150203.78;5092287;28;20184;-58
2022/10/25 05:50:32;;;;;;;75.47;17.53;;;;;;;16.66;100.00;150225.38;5092512;28;20645;-59
2022/10/25 05:52:59;;;;;;;63.13;15.93;;;;;;;17.01;100.00;150311.75;5092367;28;20688;-59
2022/10/25 05:55:26;;;;;;;74.27;19.03;;;;;;;17.21;100.00;150362.56;5092321;28;20211;-59
2022/10/25 05:57:53;;;;;;;75.47;17.83;;;;;;;17.30;100.00;150385.44;5074359;28;20180;-58
2022/10/25 06:00:21;;;;;;;49.50;17.07;;;;;;;17.28;100.00;150380.34;5091905;28;20275;-60
2022/10/25 06:02:48;;;;;;;76.83;18.67;;;;;;;17.27;100.00;150377.81;5092254;28;20222;-60
2022/10/25 06:05:17;;;;;;;63.83;18.93;;;;;;;17.69;100.00;150483.34;5091881;28;20202;-58
2022/10/25 06:07:47;;;;;;;74.63;18.37;;;;;;;18.05;100.00;150574.84;5091410;28;20603;-60
2022/10/25 06:10:14;;;;;;;69.40;17.03;;;;;;;18.15;100.00;150599.00;5091616;28;20187;-59
2022/10/25 06:12:41;;;;;;;63.50;16.50;;;;;;;18.62;100.00;150717.31;5091972;28;20230;-60
2022/10/25 06:15:09;;;;;;;35.03;13.90;;;;;;;18.94;100.00;150798.72;5091843;28;20274;-59
2022/10/25 06:17:37;;;;;;;48.40;14.97;;;;;;;19.27;100.00;150881.41;5091461;28;20188;-60
2022/10/25 06:20:05;;;;;;;36.23;14.67;;;;;;;19.53;100.00;150947.63;5091749;28;20619;-60
2022/10/25 06:22:32;;;;;;;41.93;14.63;;;;;;;19.52;100.00;150943.78;5091416;28;20188;-60
2022/10/25 06:25:02;;;;;;;41.80;14.90;;;;;;;19.76;100.00;151004.91;5091653;28;20211;-60
2022/10/25 06:27:29;;;;;;;52.37;16.00;;;;;;;20.12;100.00;151095.28;5073827;28;20271;-59
2022/10/25 06:29:56;;;;;;;52.78;16.50;;;;;;;20.64;100.00;151226.50;5091446;28;20231;-60
2022/10/25 06:32:27;;;;;;;46.60;15.50;;;;;;;21.12;100.00;151347.59;5091205;28;20208;-60
2022/10/25 06:34:56;;;;;;;41.80;14.98;;;;;;;21.43;100.00;151426.56;5091169;28;20188;-59
2022/10/25 06:37:23;;;;;;;42.43;15.67;;;;;;;21.79;100.00;151515.78;5091654;28;20623;-60
2022/10/25 06:39:50;;;;;;;46.08;15.20;;;;;;;21.84;100.00;151528.53;5090707;28;20639;-59
2022/10/25 06:42:17;;;;;;;47.78;14.18;;;;;;;21.99;100.00;151566.81;5090319;28;20184;-60
2022/10/25 06:44:44;;;;;;;49.70;13.30;;;;;;;22.33;100.00;151653.53;5095634;28;20566;-60
2022/10/25 06:47:11;;;;;;;35.90;13.65;;;;;;;22.64;100.00;151730.06;5095974;28;20199;-60
2022/10/25 06:49:38;;;;;;;33.05;12.23;;;;;;;22.94;100.00;151806.63;5095592;28;20220;-60
2022/10/25 06:52:06;;;;;;;25.08;13.13;;;;;;;23.13;100.00;151855.09;5095239;28;20218;-59
2022/10/25 06:54:33;;;;;;;32.72;12.25;;;;;;;23.15;100.00;151860.22;5095751;28;20210;-59
2022/10/25 06:57:00;;;;;;;26.05;13.40;;;;;;;23.42;100.00;151926.56;5096110;28;20188;-60
2022/10/25 06:59:27;;;;;;;29.10;12.35;;;;;;;23.40;100.00;151922.72;5095620;28;20198;-60
2022/10/25 07:01:56;;;;;;;28.83;13.10;;;;;;;23.28;100.00;151892.13;5095240;28;20181;-59
2022/10/25 07:04:22;;;;;;;28.92;12.70;;;;;;;23.59;100.00;151971.25;5095246;28;20195;-59
2022/10/25 07:06:52;;;;;;;36.65;12.32;;;;;;;23.99;100.00;152072.13;5095816;28;20235;-61
2022/10/25 07:09:20;;;;;;;22.30;13.82;;;;;;;24.09;100.00;152096.38;5095605;28;20214;-59
2022/10/25 07:11:47;;;;;;;22.85;11.95;;;;;;;24.09;100.00;152097.66;5095702;28;20190;-60
2022/10/25 07:14:14;;;;;;;27.80;13.88;;;;;;;24.65;100.00;152236.88;5094780;28;20184;-59
2022/10/25 07:16:52;;;;;;;18.20;11.88;;;;;;;25.15;100.00;152363.38;5095597;28;20668;-61
2022/10/25 07:19:19;;;;;;;31.38;12.52;;;;;;;25.70;100.00;152502.72;5095110;28;20188;-60
2022/10/25 07:21:48;;;;;;;24.50;12.20;;;;;;;26.15;99.32;152616.44;5095209;28;20184;-59
2022/10/25 07:24:15;;;;;;;28.70;12.63;;;;;;;26.32;99.02;152661.25;5095592;28;20199;-59
2022/10/25 07:26:46;;;;;;;26.05;13.35;;;;;;;26.86;95.41;152795.59;5094488;28;20184;-60
2022/10/25 07:29:14;;;;;;;25.08;12.70;;;;;;;27.47;91.92;152950.34;5094850;28;20206;-61
2022/10/25 07:31:43;;;;;;;27.92;12.93;;;;;;;27.76;89.62;153023.31;5094977;28;20267;-59
2022/10/25 07:34:12;;;;;;;39.38;14.27;;;;;;;27.97;87.58;153077.06;5057704;28;20675;-60
2022/10/25 07:36:39;;;;;;;32.13;13.13;;;;;;;28.49;84.09;153210.25;5074832;28;20180;-59
2022/10/25 07:39:06;;;;;;;29.10;15.00;;;;;;;28.55;82.52;153225.66;5074841;28;20190;-60
2022/10/25 07:41:33;;;;;;;37.03;14.38;;;;;;;28.96;80.24;153329.41;5074064;28;20196;-60
2022/10/25 07:44:01;;;;;;;40.53;16.40;;;;;;;28.68;80.61;153256.38;5074463;28;20640;-59
2022/10/25 07:46:28;;;;;;;57.38;17.30;;;;;;;28.87;79.93;153306.34;5074677;28;20204;-61
2022/10/25 07:48:55;;;;;;;57.08;16.48;;;;;;;29.28;78.51;153410.06;5074281;28;20185;-60
2022/10/25 07:51:25;;;;;;;47.78;16.98;;;;;;;29.72;75.16;153520.28;5074672;28;20185;-58
2022/10/25 07:53:53;;;;;;;44.58;16.10;;;;;;;29.62;75.97;153495.94;5073355;28;20579;-59
2022/10/25 07:56:24;;;;;;;49.28;17.77;;;;;;;29.81;73.28;153544.66;5077880;28;20185;-60
2022/10/25 07:58:51;;;;;;;46.13;15.95;;;;;;;29.64;72.98;153499.81;5067022;28;20291;-58
2022/10/25 08:01:21;;;;;;;47.15;14.50;;;;;;;30.49;69.15;153715.19;5093927;28;20258;-59
2022/10/25 08:03:48;;;;;;;46.17;14.77;;;;;;;30.95;66.98;153833.13;5094135;28;20203;-59
2022/10/25 08:06:15;;;;;;;30.60;13.82;;;;;;;31.35;61.25;153933.22;5094394;28;20190;-59
2022/10/25 08:08:42;;;;;;;32.83;12.90;;;;;;;31.70;58.73;154023.03;5094306;28;20184;-59
2022/10/25 08:11:09;;;;;;;28.30;13.07;;;;;;;31.78;57.46;154043.59;5094307;28;20207;-59
2022/10/25 08:13:37;;;;;;;26.00;12.80;;;;;;;32.27;56.84;154166.78;5094035;28;20237;-59
2022/10/25 08:16:05;;;;;;;19.85;10.70;;;;;;;32.32;54.63;154180.91;5093821;28;20190;-59
2022/10/25 08:18:34;;;;;;;14.90;11.80;;;;;;;32.96;51.56;154342.66;5094401;28;20188;-59
2022/10/25 08:21:02;;;;;;;40.83;13.80;;;;;;;33.43;51.40;154462.13;5094745;28;20206;-60
2022/10/25 08:23:31;;;;;;;52.83;16.42;;;;;;;33.03;51.87;154360.63;5094432;28;20192;-61
2022/10/25 08:25:58;;;;;;;59.85;17.25;;;;;;;32.56;53.79;154242.50;5087744;28;20279;-61
2022/10/25 08:28:25;;;;;;;82.65;19.73;;;;;;;32.33;54.96;154182.19;5074010;28;20564;-59
2022/10/25 08:30:54;;;;;;;67.90;19.05;;;;;;;32.44;55.41;154210.41;5077633;28;20241;-60
2022/10/25 08:33:26;;;;;;;56.58;19.40;;;;;;;32.61;55.31;154254.03;5084970;28;20211;-59
2022/10/25 08:35:54;;;;;;;75.78;21.13;;;;;;;32.92;55.63;154333.69;5080521;28;20247;-60
2022/10/25 08:38:21;;;;;;;48.85;19.63;;;;;;;32.98;55.22;154349.06;5082219;28;20187;-59
2022/10/25 08:40:58;;;;;;;39.75;18.15;;;;;;;33.11;54.38;154379.88;5088248;28;20194;-59
2022/10/25 08:43:52;;;;;;;39.83;17.48;;;;;;;33.05;53.54;154367.06;5093344;28;20184;-58
2022/10/25 08:46:23;;;;;;;44.35;17.75;;;;;;;33.17;52.13;154395.34;5093781;28;20575;-59
2022/10/25 08:48:54;;;;;;;27.48;16.80;;;;;;;34.47;48.54;154726.78;5093604;28;20271;-60
2022/10/25 08:51:27;;;;;;;49.03;19.95;;;;;;;34.78;47.13;154805.22;5076329;28;20602;-58
2022/10/25 08:53:59;;;;;;;52.58;19.17;;;;;;;35.17;45.56;154904.22;5093727;28;20204;-58
2022/10/25 08:56:28;;;;;;;37.63;18.05;;;;;;;35.34;44.45;154946.63;5093817;28;20210;-58
2022/10/25 08:58:57;;;;;;;35.70;18.70;;;;;;;36.04;43.21;155125.38;5093289;28;20188;-58
2022/10/25 09:01:29;;;;;;;38.22;21.38;;;;;;;35.84;44.08;155073.94;5093435;28;20192;-58
2022/10/25 09:03:56;;;;;;;35.95;23.33;;;;;;;35.17;45.99;154904.22;5093576;28;20180;-59
2022/10/25 09:06:32;;;;;;;50.95;21.90;;;;;;;34.82;50.57;154815.50;5092807;28;20227;-60
2022/10/25 09:09:08;;;;;;;32.15;21.13;;;;;;;35.55;48.34;155000.63;5074201;28;20234;-58
2022/10/25 09:11:58;;;;;;;29.02;17.92;;;;;;;35.05;49.19;154873.34;5073115;28;20276;-58
2022/10/25 09:14:34;;;;;;;36.13;17.42;;;;;;;34.95;51.71;154847.63;5073180;28;20214;-59
2022/10/25 09:17:12;;;;;;;35.60;16.83;;;;;;;35.46;47.97;154977.47;5074908;28;20192;-60
2022/10/25 09:19:47;;;;;;;25.23;14.07;;;;;;;35.91;49.17;155093.22;5072766;28;20188;-59
2022/10/25 09:22:25;;;;;;;30.60;14.77;;;;;;;36.03;48.85;155124.06;5072951;28;20220;-61
2022/10/25 09:24:58;;;;;;;33.78;15.43;;;;;;;35.71;48.31;155041.81;5072887;28;20210;-59
2022/10/25 09:27:33;;;;;;;28.42;13.60;;;;;;;35.91;47.96;155093.22;5072794;28;20188;-59
2022/10/25 09:30:03;;;;;;;27.73;12.88;;;;;;;37.09;47.03;155391.78;5054932;28;20741;-58
2022/10/25 09:32:36;;;;;;;34.10;12.20;;;;;;;36.83;45.15;155326.13;5072428;28;20193;-59
2022/10/25 09:35:05;;;;;;;15.25;11.48;;;;;;;36.61;46.23;155272.09;5072497;28;20199;-59
2022/10/25 09:37:39;;;;;;;12.05;11.05;;;;;;;36.58;46.12;155263.06;5072775;28;20256;-59
2022/10/25 09:40:12;;;;;;;19.83;10.95;;;;;;;36.32;47.38;155197.47;5072631;28;20195;-59
2022/10/25 09:42:42;;;;;;;22.08;10.90;;;;;;;36.25;46.75;155178.13;5072189;28;20181;-60
2022/10/25 09:45:20;;;;;;;23.27;11.27;;;;;;;36.06;45.91;155131.81;5072617;28;20659;-58
2022/10/25 09:47:57;;;;;;;11.45;10.23;;;;;;;35.40;50.18;154963.31;5072512;28;20200;-58
2022/10/25 09:50:28;;;;;;;14.35;10.15;;;;;;;34.89;51.95;154832.19;5075637;28;20189;-59
2022/10/25 09:53:07;;;;;;;11.90;10.73;;;;;;;33.92;57.75;154588.00;5080926;28;20611;-58
2022/10/25 09:55:44;;;;;;;10.93;9.93;;;;;;;33.59;59.05;154503.19;5081668;28;20191;-59
2022/10/25 09:58:18;;;;;;;20.63;10.10;;;;;;;32.88;62.41;154323.44;5080532;28;20207;-58
2022/10/25 10:00:47;;;;;;;12.82;9.68;;;;;;;32.82;65.40;154306.72;5087444;28;20215;-60
2022/10/25 10:03:14;;;;;;;22.95;10.60;;;;;;;31.89;70.52;154071.78;5086566;28;20185;-59
2022/10/25 10:05:47;;;;;;;11.30;9.48;;;;;;;31.89;72.63;154071.78;5079080;28;20276;-59
2022/10/25 10:08:15;;;;;;;11.00;9.13;;;;;;;31.70;71.81;154023.03;5072074;28;20195;-58
2022/10/25 10:10:42;;;;;;;9.32;8.55;;;;;;;31.14;75.14;153881.94;5072192;28;20181;-58
2022/10/25 10:13:18;;;;;;;10.40;9.48;;;;;;;30.03;80.53;153599.81;5071412;28;20223;-59
2022/10/25 10:15:53;;;;;;;14.52;10.02;;;;;;;30.06;81.29;153607.47;5071326;28;20184;-59
2022/10/25 10:18:25;;;;;;;17.92;9.82;;;;;;;30.12;78.08;153621.59;5071455;28;20184;-58
2022/10/25 10:21:15;;;;;;;14.45;9.07;;;;;;;30.30;78.63;153669.00;5071385;28;20182;-59
2022/10/25 10:23:51;;;;;;;20.50;10.00;;;;;;;30.35;73.89;153681.81;5071099;28;20181;-59
2022/10/25 10:26:26;;;;;;;15.43;9.95;;;;;;;29.99;75.88;153589.56;5071619;28;20612;-58
2022/10/25 10:29:06;;;;;;;11.85;9.18;;;;;;;29.75;75.92;153527.97;5070874;28;20227;-59
2022/10/25 10:31:36;;;;;;;12.50;10.13;;;;;;;29.18;74.13;153383.19;5071663;28;20180;-58
2022/10/25 10:34:04;;;;;;;14.02;9.85;;;;;;;28.35;80.59;153174.41;5071230;28;20208;-59
2022/10/25 10:36:32;;;;;;;17.30;9.10;;;;;;;28.84;76.33;153298.69;5071561;28;20188;-59
2022/10/25 10:39:20;;;;;;;12.50;8.63;;;;;;;27.95;81.76;153071.97;5071273;28;20224;-57
2022/10/25 10:42:01;;;;;;;17.15;9.68;;;;;;;28.00;82.49;153084.78;5071220;28;20188;-58
2022/10/25 10:44:29;;;;;;;9.10;7.88;;;;;;;27.70;82.38;153009.28;5071676;28;20203;-57
2022/10/25 10:46:57;;;;;;;8.82;8.15;;;;;;;27.65;80.33;152997.75;5071474;28;20199;-58
2022/10/25 10:49:36;;;;;;;12.90;7.85;;;;;;;27.56;80.06;152974.72;5071076;28;20197;-58
2022/10/25 10:52:07;;;;;;;8.85;8.15;;;;;;;27.78;79.74;153029.75;5070288;28;20181;-58
2022/10/25 10:54:46;;;;;;;8.82;7.97;;;;;;;27.45;80.26;152946.53;5071004;28;20216;-57
2022/10/25 10:57:25;;;;;;;14.25;8.13;;;;;;;27.17;77.92;152874.88;5071199;28;20184;-58
2022/10/25 10:59:55;;;;;;;8.93;8.30;;;;;;;26.94;81.73;152816.06;5070784;28;20185;-58
2022/10/25 11:02:27;;;;;;;10.80;7.45;;;;;;;26.95;78.09;152818.56;5070791;28;20265;-59
2022/10/25 11:05:00;;;;;;;12.90;7.60;;;;;;;26.41;81.67;152683.00;5070969;28;20184;-58
2022/10/25 11:07:33;;;;;;;7.90;7.30;;;;;;;26.07;83.67;152597.28;5070761;28;20288;-60
2022/10/25 11:10:29;;;;;;;7.78;7.07;;;;;;;25.11;92.20;152354.44;5070961;28;20196;-58
2022/10/25 11:13:14;;;;;;;9.50;7.30;;;;;;;24.99;92.97;152325.03;5035556;28;20220;-59
2022/10/25 11:16:25;;;;;;;13.82;7.88;;;;;;;24.47;96.70;152192.19;5071197;28;20187;-58
2022/10/25 11:19:37;;;;;;;7.95;7.15;;;;;;;23.92;100.00;152054.25;4989468;28;20207;-58
2022/10/25 11:22:17;;;;;;;9.70;7.60;;;;;;;23.83;100.00;152031.28;4989614;28;20199;-58